sensor_id;sensor_type;location;lat;lon;timestamp;P1;durP1;ratioP1;P2;durP2;ratioP2
30472;SDS011;17263;48.160;11.452;2023-08-20T00:02:01;5.13;;;4.63;;
30472;SDS011;17263;48.160;11.452;2023-08-20T00:04:28;9.13;;;4.60;;
30472;SDS011;17263;48.160;11.452;2023-08-20T00:06:58;8.77;;;4.87;;
30472;SDS011;17263;48.160;11.452;2023-08-20T00:09:24;7.40;;;4.60;;
30472;SDS011;17263;48.160;11.452;2023-08-20T00:11:52;5.23;;;4.70;;
30472;SDS011;17263;48.160;11.452;2023-08-20T00:14:18;7.87;;;4.60;;
30472;SDS011;17263;48.160;11.452;2023-08-20T00:16:45;7.43;;;4.63;;
30472;SDS011;17263;48.160;11.452;2023-08-20T00:19:12;7.93;;;4.93;;
30472;SDS011;17263;48.160;11.452;2023-08-20T00:21:41;7.70;;;4.47;;
30472;SDS011;17263;48.160;11.452;2023-08-20T00:24:09;8.53;;;6.33;;
30472;SDS011;17263;48.160;11.452;2023-08-20T00:26:35;9.87;;;8.67;;
30472;SDS011;17263;48.160;11.452;2023-08-20T00:29:01;11.70;;;6.40;;
30472;SDS011;17263;48.160;11.452;2023-08-20T00:31:28;6.23;;;5.40;;
30472;SDS011;17263;48.160;11.452;2023-08-20T00:33:55;7.33;;;5.43;;
30472;SDS011;17263;48.160;11.452;2023-08-20T00:36:21;6.23;;;5.27;;
30472;SDS011;17263;48.160;11.452;2023-08-20T00:38:47;8.60;;;4.90;;
30472;SDS011;17263;48.160;11.452;2023-08-20T00:41:13;6.93;;;4.77;;
30472;SDS011;17263;48.160;11.452;2023-08-20T00:43:39;9.67;;;4.80;;
30472;SDS011;17263;48.160;11.452;2023-08-20T00:46:05;6.90;;;5.00;;
30472;SDS011;17263;48.160;11.452;2023-08-20T00:48:31;9.80;;;5.00;;
30472;SDS011;17263;48.160;11.452;2023-08-20T00:50:57;8.13;;;5.40;;
30472;SDS011;17263;48.160;11.452;2023-08-20T00:53:23;5.77;;;4.90;;
30472;SDS011;17263;48.160;11.452;2023-08-20T00:55:49;8.20;;;5.07;;
30472;SDS011;17263;48.160;11.452;2023-08-20T00:58:15;7.70;;;4.90;;
30472;SDS011;17263;48.160;11.452;2023-08-20T01:00:41;6.60;;;4.60;;
30472;SDS011;17263;48.160;11.452;2023-08-20T01:03:07;5.50;;;4.77;;
30472;SDS011;17263;48.160;11.452;2023-08-20T01:05:36;7.53;;;4.83;;
30472;SDS011;17263;48.160;11.452;2023-08-20T01:11:06;6.97;;;5.20;;
30472;SDS011;17263;48.160;11.452;2023-08-20T01:13:36;5.57;;;5.07;;
30472;SDS011;17263;48.160;11.452;2023-08-20T01:16:02;6.07;;;4.63;;
30472;SDS011;17263;48.160;11.452;2023-08-20T01:18:28;6.27;;;4.80;;
30472;SDS011;17263;48.160;11.452;2023-08-20T01:20:58;7.67;;;5.33;;
30472;SDS011;17263;48.160;11.452;2023-08-20T01:23:34;7.87;;;4.83;;
30472;SDS011;17263;48.160;11.452;2023-08-20T01:26:21;7.67;;;4.87;;
30472;SDS011;17263;48.160;11.452;2023-08-20T01:29:09;4.97;;;4.47;;
30472;SDS011;17263;48.160;11.452;2023-08-20T01:31:37;6.40;;;5.40;;
30472;SDS011;17263;48.160;11.452;2023-08-20T01:34:04;9.67;;;5.30;;
30472;SDS011;17263;48.160;11.452;2023-08-20T01:36:30;8.07;;;5.20;;
30472;SDS011;17263;48.160;11.452;2023-08-20T01:38:56;5.93;;;4.80;;
30472;SDS011;17263;48.160;11.452;2023-08-20T01:41:22;7.70;;;5.07;;
30472;SDS011;17263;48.160;11.452;2023-08-20T01:43:48;5.93;;;4.77;;
30472;SDS011;17263;48.160;11.452;2023-08-20T01:46:14;5.20;;;4.60;;
30472;SDS011;17263;48.160;11.452;2023-08-20T01:48:40;7.40;;;5.10;;
30472;SDS011;17263;48.160;11.452;2023-08-20T01:51:06;6.33;;;5.07;;
30472;SDS011;17263;48.160;11.452;2023-08-20T01:53:32;6.50;;;5.10;;
30472;SDS011;17263;48.160;11.452;2023-08-20T01:55:58;6.33;;;4.93;;
30472;SDS011;17263;48.160;11.452;2023-08-20T01:58:24;6.13;;;5.00;;
30472;SDS011;17263;48.160;11.452;2023-08-20T02:00:51;7.03;;;5.17;;
30472;SDS011;17263;48.160;11.452;2023-08-20T02:03:17;6.97;;;4.60;;
30472;SDS011;17263;48.160;11.452;2023-08-20T02:05:43;7.80;;;4.67;;
30472;SDS011;17263;48.160;11.452;2023-08-20T02:08:09;7.93;;;4.40;;
30472;SDS011;17263;48.160;11.452;2023-08-20T02:10:35;6.10;;;5.13;;
30472;SDS011;17263;48.160;11.452;2023-08-20T02:13:01;5.77;;;5.00;;
30472;SDS011;17263;48.160;11.452;2023-08-20T02:15:29;5.13;;;4.60;;
30472;SDS011;17263;48.160;11.452;2023-08-20T02:17:56;5.63;;;4.73;;
30472;SDS011;17263;48.160;11.452;2023-08-20T02:20:22;6.33;;;4.60;;
30472;SDS011;17263;48.160;11.452;2023-08-20T02:22:48;6.30;;;4.90;;
30472;SDS011;17263;48.160;11.452;2023-08-20T02:25:14;7.13;;;4.97;;
30472;SDS011;17263;48.160;11.452;2023-08-20T02:27:40;5.60;;;4.83;;
30472;SDS011;17263;48.160;11.452;2023-08-20T02:30:06;5.30;;;4.53;;
30472;SDS011;17263;48.160;11.452;2023-08-20T02:32:33;6.03;;;4.67;;
30472;SDS011;17263;48.160;11.452;2023-08-20T02:34:59;5.10;;;3.90;;
30472;SDS011;17263;48.160;11.452;2023-08-20T02:37:25;8.03;;;5.00;;
30472;SDS011;17263;48.160;11.452;2023-08-20T02:39:51;6.77;;;4.97;;
30472;SDS011;17263;48.160;11.452;2023-08-20T02:42:17;7.73;;;5.40;;
30472;SDS011;17263;48.160;11.452;2023-08-20T02:44:43;8.47;;;5.00;;
30472;SDS011;17263;48.160;11.452;2023-08-20T02:47:09;6.43;;;5.10;;
30472;SDS011;17263;48.160;11.452;2023-08-20T02:49:35;6.63;;;4.70;;
30472;SDS011;17263;48.160;11.452;2023-08-20T02:52:01;5.10;;;4.60;;
30472;SDS011;17263;48.160;11.452;2023-08-20T02:54:28;5.43;;;4.83;;
30472;SDS011;17263;48.160;11.452;2023-08-20T02:56:58;7.50;;;5.23;;
30472;SDS011;17263;48.160;11.452;2023-08-20T02:59:24;6.40;;;4.97;;
30472;SDS011;17263;48.160;11.452;2023-08-20T03:01:51;7.03;;;4.83;;
30472;SDS011;17263;48.160;11.452;2023-08-20T03:04:17;8.90;;;4.80;;
30472;SDS011;17263;48.160;11.452;2023-08-20T03:06:43;6.80;;;4.80;;
30472;SDS011;17263;48.160;11.452;2023-08-20T03:09:09;8.53;;;4.83;;
30472;SDS011;17263;48.160;11.452;2023-08-20T03:11:35;6.23;;;4.90;;
30472;SDS011;17263;48.160;11.452;2023-08-20T03:14:01;7.83;;;5.07;;
30472;SDS011;17263;48.160;11.452;2023-08-20T03:16:27;6.57;;;4.30;;
30472;SDS011;17263;48.160;11.452;2023-08-20T03:18:53;5.90;;;4.73;;
30472;SDS011;17263;48.160;11.452;2023-08-20T03:21:19;8.40;;;4.87;;
30472;SDS011;17263;48.160;11.452;2023-08-20T03:23:45;7.83;;;5.20;;
30472;SDS011;17263;48.160;11.452;2023-08-20T03:26:11;7.80;;;4.63;;
30472;SDS011;17263;48.160;11.452;2023-08-20T03:28:37;9.83;;;5.17;;
30472;SDS011;17263;48.160;11.452;2023-08-20T03:31:03;6.03;;;4.80;;
30472;SDS011;17263;48.160;11.452;2023-08-20T03:33:29;6.53;;;4.93;;
30472;SDS011;17263;48.160;11.452;2023-08-20T03:35:55;5.57;;;4.97;;
30472;SDS011;17263;48.160;11.452;2023-08-20T03:38:21;8.80;;;4.87;;
30472;SDS011;17263;48.160;11.452;2023-08-20T03:40:47;8.70;;;5.33;;
30472;SDS011;17263;48.160;11.452;2023-08-20T03:43:13;6.60;;;5.50;;
30472;SDS011;17263;48.160;11.452;2023-08-20T03:45:42;7.67;;;5.30;;
30472;SDS011;17263;48.160;11.452;2023-08-20T03:48:08;7.07;;;5.10;;
30472;SDS011;17263;48.160;11.452;2023-08-20T03:50:34;6.60;;;5.47;;
30472;SDS011;17263;48.160;11.452;2023-08-20T03:53:00;5.23;;;4.70;;
30472;SDS011;17263;48.160;11.452;2023-08-20T03:55:26;5.13;;;4.63;;
30472;SDS011;17263;48.160;11.452;2023-08-20T03:57:52;9.07;;;4.97;;
30472;SDS011;17263;48.160;11.452;2023-08-20T04:00:18;5.13;;;4.70;;
30472;SDS011;17263;48.160;11.452;2023-08-20T04:02:44;6.43;;;4.90;;
30472;SDS011;17263;48.160;11.452;2023-08-20T04:05:10;5.30;;;4.73;;
30472;SDS011;17263;48.160;11.452;2023-08-20T04:07:36;5.73;;;4.70;;
30472;SDS011;17263;48.160;11.452;2023-08-20T04:10:05;8.80;;;5.23;;
30472;SDS011;17263;48.160;11.452;2023-08-20T04:12:33;8.27;;;4.93;;
30472;SDS011;17263;48.160;11.452;2023-08-20T04:14:59;6.97;;;4.93;;
30472;SDS011;17263;48.160;11.452;2023-08-20T04:17:25;5.90;;;4.77;;
30472;SDS011;17263;48.160;11.452;2023-08-20T04:19:51;6.60;;;4.93;;
30472;SDS011;17263;48.160;11.452;2023-08-20T04:22:22;6.13;;;5.07;;
30472;SDS011;17263;48.160;11.452;2023-08-20T04:25:00;5.47;;;4.97;;
30472;SDS011;17263;48.160;11.452;2023-08-20T04:27:30;7.70;;;5.30;;
30472;SDS011;17263;48.160;11.452;2023-08-20T04:29:56;6.77;;;5.57;;
30472;SDS011;17263;48.160;11.452;2023-08-20T04:32:22;6.83;;;5.20;;
30472;SDS011;17263;48.160;11.452;2023-08-20T04:34:48;7.67;;;5.30;;
30472;SDS011;17263;48.160;11.452;2023-08-20T04:37:20;9.07;;;5.07;;
30472;SDS011;17263;48.160;11.452;2023-08-20T04:39:46;5.40;;;4.90;;
30472;SDS011;17263;48.160;11.452;2023-08-20T04:42:20;9.80;;;5.17;;
30472;SDS011;17263;48.160;11.452;2023-08-20T04:44:46;8.60;;;5.43;;
30472;SDS011;17263;48.160;11.452;2023-08-20T04:47:15;5.67;;;5.13;;
30472;SDS011;17263;48.160;11.452;2023-08-20T04:49:41;7.03;;;5.47;;
30472;SDS011;17263;48.160;11.452;2023-08-20T04:52:10;6.20;;;5.23;;
30472;SDS011;17263;48.160;11.452;2023-08-20T04:54:36;7.27;;;5.33;;
30472;SDS011;17263;48.160;11.452;2023-08-20T04:57:03;6.23;;;5.53;;
30472;SDS011;17263;48.160;11.452;2023-08-20T04:59:29;5.77;;;5.10;;
30472;SDS011;17263;48.160;11.452;2023-08-20T05:01:56;6.40;;;4.97;;
30472;SDS011;17263;48.160;11.452;2023-08-20T05:04:22;5.97;;;5.17;;
30472;SDS011;17263;48.160;11.452;2023-08-20T05:06:51;5.90;;;5.07;;
30472;SDS011;17263;48.160;11.452;2023-08-20T05:09:21;6.03;;;5.00;;
30472;SDS011;17263;48.160;11.452;2023-08-20T05:11:47;6.83;;;4.83;;
30472;SDS011;17263;48.160;11.452;2023-08-20T05:14:14;5.63;;;4.57;;
30472;SDS011;17263;48.160;11.452;2023-08-20T05:16:40;8.70;;;5.40;;
30472;SDS011;17263;48.160;11.452;2023-08-20T05:19:06;7.10;;;4.97;;
30472;SDS011;17263;48.160;11.452;2023-08-20T05:21:35;8.67;;;5.37;;
30472;SDS011;17263;48.160;11.452;2023-08-20T05:24:01;8.53;;;5.03;;
30472;SDS011;17263;48.160;11.452;2023-08-20T05:26:27;6.77;;;5.23;;
30472;SDS011;17263;48.160;11.452;2023-08-20T05:28:54;6.20;;;4.70;;
30472;SDS011;17263;48.160;11.452;2023-08-20T05:31:25;5.70;;;4.60;;
30472;SDS011;17263;48.160;11.452;2023-08-20T05:33:51;6.63;;;4.10;;
30472;SDS011;17263;48.160;11.452;2023-08-20T05:36:21;6.70;;;4.60;;
30472;SDS011;17263;48.160;11.452;2023-08-20T05:38:48;5.37;;;4.27;;
30472;SDS011;17263;48.160;11.452;2023-08-20T05:41:14;6.93;;;4.40;;
30472;SDS011;17263;48.160;11.452;2023-08-20T05:43:40;6.10;;;4.47;;
30472;SDS011;17263;48.160;11.452;2023-08-20T05:46:07;6.78;;;4.25;;
30472;SDS011;17263;48.160;11.452;2023-08-20T05:48:33;6.13;;;4.30;;
30472;SDS011;17263;48.160;11.452;2023-08-20T05:51:02;5.57;;;4.00;;
30472;SDS011;17263;48.160;11.452;2023-08-20T05:53:36;5.90;;;4.35;;
30472;SDS011;17263;48.160;11.452;2023-08-20T05:56:02;6.95;;;3.72;;
30472;SDS011;17263;48.160;11.452;2023-08-20T05:58:28;4.35;;;3.95;;
30472;SDS011;17263;48.160;11.452;2023-08-20T06:00:54;5.38;;;3.70;;
30472;SDS011;17263;48.160;11.452;2023-08-20T06:03:20;6.20;;;3.83;;
30472;SDS011;17263;48.160;11.452;2023-08-20T06:05:46;5.93;;;3.50;;
30472;SDS011;17263;48.160;11.452;2023-08-20T06:08:12;5.78;;;4.13;;
30472;SDS011;17263;48.160;11.452;2023-08-20T06:10:39;8.07;;;3.63;;
30472;SDS011;17263;48.160;11.452;2023-08-20T06:13:05;5.40;;;3.75;;
30472;SDS011;17263;48.160;11.452;2023-08-20T06:15:31;5.72;;;3.80;;
30472;SDS011;17263;48.160;11.452;2023-08-20T06:17:57;5.15;;;3.72;;
30472;SDS011;17263;48.160;11.452;2023-08-20T06:20:23;6.22;;;3.75;;
30472;SDS011;17263;48.160;11.452;2023-08-20T06:22:49;6.50;;;3.72;;
30472;SDS011;17263;48.160;11.452;2023-08-20T06:25:15;4.35;;;3.30;;
30472;SDS011;17263;48.160;11.452;2023-08-20T06:27:41;6.10;;;3.65;;
30472;SDS011;17263;48.160;11.452;2023-08-20T06:30:07;5.72;;;3.35;;
30472;SDS011;17263;48.160;11.452;2023-08-20T06:32:34;6.75;;;3.58;;
30472;SDS011;17263;48.160;11.452;2023-08-20T06:35:02;5.45;;;3.60;;
30472;SDS011;17263;48.160;11.452;2023-08-20T06:37:28;8.18;;;3.60;;
30472;SDS011;17263;48.160;11.452;2023-08-20T06:39:54;6.55;;;3.78;;
30472;SDS011;17263;48.160;11.452;2023-08-20T06:42:20;10.60;;;4.15;;
30472;SDS011;17263;48.160;11.452;2023-08-20T06:44:46;7.40;;;4.18;;
30472;SDS011;17263;48.160;11.452;2023-08-20T06:47:15;7.20;;;3.67;;
30472;SDS011;17263;48.160;11.452;2023-08-20T06:49:41;10.35;;;3.88;;
30472;SDS011;17263;48.160;11.452;2023-08-20T06:52:07;7.88;;;3.50;;
30472;SDS011;17263;48.160;11.452;2023-08-20T06:54:33;5.80;;;3.83;;
30472;SDS011;17263;48.160;11.452;2023-08-20T06:56:59;7.30;;;3.65;;
30472;SDS011;17263;48.160;11.452;2023-08-20T06:59:29;6.20;;;3.92;;
30472;SDS011;17263;48.160;11.452;2023-08-20T07:01:55;6.65;;;3.47;;
30472;SDS011;17263;48.160;11.452;2023-08-20T07:04:21;7.53;;;3.95;;
30472;SDS011;17263;48.160;11.452;2023-08-20T07:06:47;3.92;;;3.38;;
30472;SDS011;17263;48.160;11.452;2023-08-20T07:09:13;10.15;;;3.95;;
30472;SDS011;17263;48.160;11.452;2023-08-20T07:11:39;6.05;;;3.55;;
30472;SDS011;17263;48.160;11.452;2023-08-20T07:14:05;5.13;;;4.05;;
30472;SDS011;17263;48.160;11.452;2023-08-20T07:16:32;6.93;;;3.85;;
30472;SDS011;17263;48.160;11.452;2023-08-20T07:18:58;7.63;;;3.50;;
30472;SDS011;17263;48.160;11.452;2023-08-20T07:21:24;6.13;;;3.90;;
30472;SDS011;17263;48.160;11.452;2023-08-20T07:23:50;8.23;;;3.70;;
30472;SDS011;17263;48.160;11.452;2023-08-20T07:26:16;6.13;;;3.92;;
30472;SDS011;17263;48.160;11.452;2023-08-20T07:28:42;6.30;;;3.92;;
30472;SDS011;17263;48.160;11.452;2023-08-20T07:31:27;5.82;;;3.40;;
30472;SDS011;17263;48.160;11.452;2023-08-20T07:33:55;6.63;;;3.58;;
30472;SDS011;17263;48.160;11.452;2023-08-20T07:36:24;7.78;;;4.05;;
30472;SDS011;17263;48.160;11.452;2023-08-20T07:38:51;5.20;;;3.85;;
30472;SDS011;17263;48.160;11.452;2023-08-20T07:41:19;11.00;;;4.47;;
30472;SDS011;17263;48.160;11.452;2023-08-20T07:43:48;7.30;;;3.90;;
30472;SDS011;17263;48.160;11.452;2023-08-20T07:46:15;7.60;;;3.45;;
30472;SDS011;17263;48.160;11.452;2023-08-20T07:48:41;7.85;;;4.07;;
30472;SDS011;17263;48.160;11.452;2023-08-20T07:51:08;6.22;;;4.20;;
30472;SDS011;17263;48.160;11.452;2023-08-20T07:53:38;7.60;;;3.58;;
30472;SDS011;17263;48.160;11.452;2023-08-20T07:56:04;7.97;;;3.80;;
30472;SDS011;17263;48.160;11.452;2023-08-20T07:58:30;7.82;;;4.00;;
30472;SDS011;17263;48.160;11.452;2023-08-20T08:00:56;5.07;;;3.13;;
30472;SDS011;17263;48.160;11.452;2023-08-20T08:03:24;6.35;;;3.80;;
30472;SDS011;17263;48.160;11.452;2023-08-20T08:05:51;5.95;;;3.72;;
30472;SDS011;17263;48.160;11.452;2023-08-20T08:08:19;6.53;;;3.63;;
30472;SDS011;17263;48.160;11.452;2023-08-20T08:10:46;6.40;;;3.70;;
30472;SDS011;17263;48.160;11.452;2023-08-20T08:13:13;5.70;;;3.80;;
30472;SDS011;17263;48.160;11.452;2023-08-20T08:15:40;9.80;;;3.83;;
30472;SDS011;17263;48.160;11.452;2023-08-20T08:18:06;7.63;;;4.40;;
30472;SDS011;17263;48.160;11.452;2023-08-20T08:20:33;5.25;;;3.97;;
30472;SDS011;17263;48.160;11.452;2023-08-20T08:22:59;4.50;;;3.75;;
30472;SDS011;17263;48.160;11.452;2023-08-20T08:25:26;8.38;;;3.83;;
30472;SDS011;17263;48.160;11.452;2023-08-20T08:27:52;5.95;;;3.78;;
30472;SDS011;17263;48.160;11.452;2023-08-20T08:30:18;4.07;;;3.67;;
30472;SDS011;17263;48.160;11.452;2023-08-20T08:32:45;5.03;;;3.55;;
30472;SDS011;17263;48.160;11.452;2023-08-20T08:35:11;4.60;;;3.40;;
30472;SDS011;17263;48.160;11.452;2023-08-20T08:37:39;9.35;;;4.22;;
30472;SDS011;17263;48.160;11.452;2023-08-20T08:40:05;5.60;;;3.58;;
30472;SDS011;17263;48.160;11.452;2023-08-20T08:42:32;6.50;;;3.50;;
30472;SDS011;17263;48.160;11.452;2023-08-20T08:45:02;5.15;;;3.42;;
30472;SDS011;17263;48.160;11.452;2023-08-20T08:47:29;5.40;;;3.97;;
30472;SDS011;17263;48.160;11.452;2023-08-20T08:49:55;5.85;;;3.83;;
30472;SDS011;17263;48.160;11.452;2023-08-20T08:52:22;5.60;;;3.80;;
30472;SDS011;17263;48.160;11.452;2023-08-20T08:54:48;5.78;;;3.72;;
30472;SDS011;17263;48.160;11.452;2023-08-20T08:57:15;6.15;;;3.58;;
30472;SDS011;17263;48.160;11.452;2023-08-20T08:59:41;5.93;;;3.88;;
30472;SDS011;17263;48.160;11.452;2023-08-20T09:02:08;4.68;;;3.55;;
30472;SDS011;17263;48.160;11.452;2023-08-20T09:04:39;6.50;;;3.50;;
30472;SDS011;17263;48.160;11.452;2023-08-20T09:07:10;6.30;;;3.67;;
30472;SDS011;17263;48.160;11.452;2023-08-20T09:09:44;3.95;;;3.38;;
30472;SDS011;17263;48.160;11.452;2023-08-20T09:12:14;6.15;;;4.10;;
30472;SDS011;17263;48.160;11.452;2023-08-20T09:14:48;5.60;;;3.85;;
30472;SDS011;17263;48.160;11.452;2023-08-20T09:17:16;5.93;;;3.60;;
30472;SDS011;17263;48.160;11.452;2023-08-20T09:19:43;5.03;;;3.70;;
30472;SDS011;17263;48.160;11.452;2023-08-20T09:22:13;4.63;;;3.42;;
30472;SDS011;17263;48.160;11.452;2023-08-20T09:27:11;5.40;;;3.45;;
30472;SDS011;17263;48.160;11.452;2023-08-20T09:29:47;7.10;;;3.83;;
30472;SDS011;17263;48.160;11.452;2023-08-20T09:32:19;5.07;;;3.70;;
30472;SDS011;17263;48.160;11.452;2023-08-20T09:34:50;5.80;;;3.60;;
30472;SDS011;17263;48.160;11.452;2023-08-20T09:37:18;5.10;;;4.20;;
30472;SDS011;17263;48.160;11.452;2023-08-20T09:39:45;4.75;;;3.80;;
30472;SDS011;17263;48.160;11.452;2023-08-20T09:42:11;3.85;;;3.45;;
30472;SDS011;17263;48.160;11.452;2023-08-20T09:44:39;5.63;;;3.80;;
30472;SDS011;17263;48.160;11.452;2023-08-20T09:47:09;3.92;;;3.15;;
30472;SDS011;17263;48.160;11.452;2023-08-20T09:49:37;5.43;;;3.58;;
30472;SDS011;17263;48.160;11.452;2023-08-20T09:52:30;4.60;;;3.88;;
30472;SDS011;17263;48.160;11.452;2023-08-20T09:55:07;4.47;;;3.88;;
30472;SDS011;17263;48.160;11.452;2023-08-20T09:57:35;4.78;;;3.85;;
30472;SDS011;17263;48.160;11.452;2023-08-20T10:00:04;7.15;;;3.50;;
30472;SDS011;17263;48.160;11.452;2023-08-20T10:02:32;4.25;;;3.80;;
30472;SDS011;17263;48.160;11.452;2023-08-20T10:04:59;6.22;;;3.92;;
30472;SDS011;17263;48.160;11.452;2023-08-20T10:07:28;3.90;;;3.15;;
30472;SDS011;17263;48.160;11.452;2023-08-20T10:09:58;6.57;;;4.13;;
30472;SDS011;17263;48.160;11.452;2023-08-20T10:12:27;5.25;;;4.03;;
30472;SDS011;17263;48.160;11.452;2023-08-20T10:14:55;5.65;;;3.85;;
30472;SDS011;17263;48.160;11.452;2023-08-20T10:17:22;5.90;;;4.30;;
30472;SDS011;17263;48.160;11.452;2023-08-20T10:19:48;6.57;;;4.53;;
30472;SDS011;17263;48.160;11.452;2023-08-20T10:22:16;5.28;;;4.28;;
30472;SDS011;17263;48.160;11.452;2023-08-20T10:24:52;6.00;;;3.90;;
30472;SDS011;17263;48.160;11.452;2023-08-20T10:27:25;5.82;;;3.65;;
30472;SDS011;17263;48.160;11.452;2023-08-20T10:29:53;6.57;;;3.60;;
30472;SDS011;17263;48.160;11.452;2023-08-20T10:32:20;4.72;;;3.25;;
30472;SDS011;17263;48.160;11.452;2023-08-20T10:35:06;4.70;;;3.28;;
30472;SDS011;17263;48.160;11.452;2023-08-20T10:37:34;4.60;;;3.42;;
30472;SDS011;17263;48.160;11.452;2023-08-20T10:40:01;4.93;;;3.40;;
30472;SDS011;17263;48.160;11.452;2023-08-20T10:42:29;6.32;;;3.83;;
30472;SDS011;17263;48.160;11.452;2023-08-20T10:44:56;6.18;;;3.58;;
30472;SDS011;17263;48.160;11.452;2023-08-20T10:50:15;6.95;;;4.05;;
30472;SDS011;17263;48.160;11.452;2023-08-20T10:52:46;4.63;;;3.63;;
30472;SDS011;17263;48.160;11.452;2023-08-20T10:55:23;5.35;;;3.50;;
30472;SDS011;17263;48.160;11.452;2023-08-20T10:57:56;4.72;;;3.70;;
30472;SDS011;17263;48.160;11.452;2023-08-20T11:00:22;5.68;;;3.97;;
30472;SDS011;17263;48.160;11.452;2023-08-20T11:02:49;4.85;;;3.40;;
30472;SDS011;17263;48.160;11.452;2023-08-20T11:05:16;4.72;;;3.90;;
30472;SDS011;17263;48.160;11.452;2023-08-20T11:07:45;5.38;;;3.65;;
30472;SDS011;17263;48.160;11.452;2023-08-20T11:10:15;5.93;;;3.97;;
30472;SDS011;17263;48.160;11.452;2023-08-20T11:12:42;6.43;;;3.50;;
30472;SDS011;17263;48.160;11.452;2023-08-20T11:15:12;4.82;;;3.60;;
30472;SDS011;17263;48.160;11.452;2023-08-20T11:17:47;4.05;;;3.65;;
30472;SDS011;17263;48.160;11.452;2023-08-20T11:20:16;5.20;;;3.60;;
30472;SDS011;17263;48.160;11.452;2023-08-20T11:22:42;6.30;;;3.78;;
30472;SDS011;17263;48.160;11.452;2023-08-20T11:25:12;5.85;;;4.05;;
30472;SDS011;17263;48.160;11.452;2023-08-20T11:27:43;4.00;;;3.60;;
30472;SDS011;17263;48.160;11.452;2023-08-20T11:30:10;5.53;;;3.28;;
30472;SDS011;17263;48.160;11.452;2023-08-20T11:32:39;5.15;;;3.90;;
30472;SDS011;17263;48.160;11.452;2023-08-20T11:35:06;4.65;;;3.67;;
30472;SDS011;17263;48.160;11.452;2023-08-20T11:37:33;5.57;;;3.70;;
30472;SDS011;17263;48.160;11.452;2023-08-20T11:39:59;4.68;;;3.60;;
30472;SDS011;17263;48.160;11.452;2023-08-20T11:42:25;4.93;;;3.63;;
30472;SDS011;17263;48.160;11.452;2023-08-20T11:44:53;6.75;;;3.95;;
30472;SDS011;17263;48.160;11.452;2023-08-20T11:47:21;4.35;;;3.42;;
30472;SDS011;17263;48.160;11.452;2023-08-20T11:49:47;4.25;;;3.63;;
30472;SDS011;17263;48.160;11.452;2023-08-20T11:52:13;3.70;;;3.15;;
30472;SDS011;17263;48.160;11.452;2023-08-20T11:54:39;3.90;;;3.45;;
30472;SDS011;17263;48.160;11.452;2023-08-20T11:57:07;9.27;;;3.55;;
30472;SDS011;17263;48.160;11.452;2023-08-20T11:59:33;5.57;;;3.35;;
30472;SDS011;17263;48.160;11.452;2023-08-20T12:02:00;3.92;;;3.58;;
30472;SDS011;17263;48.160;11.452;2023-08-20T12:04:30;5.60;;;3.80;;
30472;SDS011;17263;48.160;11.452;2023-08-20T12:07:09;5.88;;;3.55;;
30472;SDS011;17263;48.160;11.452;2023-08-20T12:09:39;6.28;;;4.10;;
30472;SDS011;17263;48.160;11.452;2023-08-20T12:12:06;4.35;;;3.50;;
30472;SDS011;17263;48.160;11.452;2023-08-20T12:14:33;5.05;;;3.50;;
30472;SDS011;17263;48.160;11.452;2023-08-20T12:17:00;4.40;;;3.40;;
30472;SDS011;17263;48.160;11.452;2023-08-20T12:19:26;5.65;;;3.50;;
30472;SDS011;17263;48.160;11.452;2023-08-20T12:21:52;5.05;;;3.60;;
30472;SDS011;17263;48.160;11.452;2023-08-20T12:24:18;4.60;;;3.22;;
30472;SDS011;17263;48.160;11.452;2023-08-20T12:26:47;5.13;;;3.03;;
30472;SDS011;17263;48.160;11.452;2023-08-20T12:29:13;3.42;;;3.13;;
30472;SDS011;17263;48.160;11.452;2023-08-20T12:31:39;3.55;;;2.78;;
30472;SDS011;17263;48.160;11.452;2023-08-20T12:34:06;3.80;;;3.10;;
30472;SDS011;17263;48.160;11.452;2023-08-20T12:36:33;5.35;;;3.13;;
30472;SDS011;17263;48.160;11.452;2023-08-20T12:38:59;5.05;;;3.10;;
30472;SDS011;17263;48.160;11.452;2023-08-20T12:41:25;7.10;;;3.30;;
30472;SDS011;17263;48.160;11.452;2023-08-20T12:43:51;5.53;;;3.78;;
30472;SDS011;17263;48.160;11.452;2023-08-20T12:46:17;3.47;;;2.80;;
30472;SDS011;17263;48.160;11.452;2023-08-20T12:48:43;3.70;;;3.08;;
30472;SDS011;17263;48.160;11.452;2023-08-20T12:51:10;6.00;;;3.65;;
30472;SDS011;17263;48.160;11.452;2023-08-20T12:53:39;5.28;;;3.30;;
30472;SDS011;17263;48.160;11.452;2023-08-20T12:56:05;4.38;;;3.25;;
30472;SDS011;17263;48.160;11.452;2023-08-20T12:58:31;5.00;;;3.60;;
30472;SDS011;17263;48.160;11.452;2023-08-20T13:00:57;3.50;;;3.08;;
30472;SDS011;17263;48.160;11.452;2023-08-20T13:03:23;9.40;;;3.92;;
30472;SDS011;17263;48.160;11.452;2023-08-20T13:05:50;3.80;;;3.28;;
30472;SDS011;17263;48.160;11.452;2023-08-20T13:08:16;4.57;;;3.35;;
30472;SDS011;17263;48.160;11.452;2023-08-20T13:10:43;5.70;;;3.60;;
30472;SDS011;17263;48.160;11.452;2023-08-20T13:13:18;4.43;;;3.55;;
30472;SDS011;17263;48.160;11.452;2023-08-20T13:15:47;3.92;;;3.60;;
30472;SDS011;17263;48.160;11.452;2023-08-20T13:18:14;5.25;;;3.67;;
30472;SDS011;17263;48.160;11.452;2023-08-20T13:20:40;4.85;;;3.10;;
30472;SDS011;17263;48.160;11.452;2023-08-20T13:23:07;5.20;;;3.60;;
30472;SDS011;17263;48.160;11.452;2023-08-20T13:25:33;6.40;;;3.10;;
30472;SDS011;17263;48.160;11.452;2023-08-20T13:27:59;4.95;;;3.33;;
30472;SDS011;17263;48.160;11.452;2023-08-20T13:30:25;4.85;;;3.30;;
30472;SDS011;17263;48.160;11.452;2023-08-20T13:32:51;4.28;;;3.17;;
30472;SDS011;17263;48.160;11.452;2023-08-20T13:35:17;5.68;;;3.78;;
30472;SDS011;17263;48.160;11.452;2023-08-20T13:37:44;5.18;;;3.53;;
30472;SDS011;17263;48.160;11.452;2023-08-20T13:40:11;5.93;;;2.75;;
30472;SDS011;17263;48.160;11.452;2023-08-20T13:42:37;5.57;;;3.10;;
30472;SDS011;17263;48.160;11.452;2023-08-20T13:45:03;4.35;;;3.50;;
30472;SDS011;17263;48.160;11.452;2023-08-20T13:47:29;3.75;;;3.33;;
30472;SDS011;17263;48.160;11.452;2023-08-20T13:49:56;4.35;;;3.15;;
30472;SDS011;17263;48.160;11.452;2023-08-20T13:52:22;4.45;;;3.65;;
30472;SDS011;17263;48.160;11.452;2023-08-20T13:54:48;5.13;;;3.47;;
30472;SDS011;17263;48.160;11.452;2023-08-20T13:57:14;5.93;;;3.50;;
30472;SDS011;17263;48.160;11.452;2023-08-20T13:59:40;4.95;;;3.35;;
30472;SDS011;17263;48.160;11.452;2023-08-20T14:02:06;5.53;;;3.42;;
30472;SDS011;17263;48.160;11.452;2023-08-20T14:04:33;5.90;;;3.47;;
30472;SDS011;17263;48.160;11.452;2023-08-20T14:06:59;7.22;;;3.40;;
30472;SDS011;17263;48.160;11.452;2023-08-20T14:09:25;5.38;;;3.38;;
30472;SDS011;17263;48.160;11.452;2023-08-20T14:11:51;6.10;;;3.60;;
30472;SDS011;17263;48.160;11.452;2023-08-20T14:14:17;4.18;;;3.30;;
30472;SDS011;17263;48.160;11.452;2023-08-20T14:16:43;3.72;;;3.42;;
30472;SDS011;17263;48.160;11.452;2023-08-20T14:19:09;7.00;;;3.78;;
30472;SDS011;17263;48.160;11.452;2023-08-20T14:21:35;4.05;;;3.65;;
30472;SDS011;17263;48.160;11.452;2023-08-20T14:24:02;4.75;;;3.47;;
30472;SDS011;17263;48.160;11.452;2023-08-20T14:26:28;3.83;;;3.30;;
30472;SDS011;17263;48.160;11.452;2023-08-20T14:28:55;5.18;;;3.05;;
30472;SDS011;17263;48.160;11.452;2023-08-20T14:31:21;5.38;;;3.47;;
30472;SDS011;17263;48.160;11.452;2023-08-20T14:33:47;5.75;;;3.55;;
30472;SDS011;17263;48.160;11.452;2023-08-20T14:36:13;6.18;;;3.58;;
30472;SDS011;17263;48.160;11.452;2023-08-20T14:38:39;5.90;;;3.65;;
30472;SDS011;17263;48.160;11.452;2023-08-20T14:41:05;3.55;;;3.25;;
30472;SDS011;17263;48.160;11.452;2023-08-20T14:43:31;6.95;;;4.00;;